Time;durP1;ratioP1;P1;durP2;ratioP2;P2;SDS_P1;SDS_P2;PMS_P1;PMS_P2;Temp;Humidity;BMP_temperature;BMP_pressure;BME280_temperature;BME280_humidity;BME280_pressure;Samples;Min_cycle;Max_cycle;Signal;HPM_P1;HPM_P2
2023/09/19 00:00:44;;;;;;;2.67;0.90;;;;;;;16.06;100.00;96893.19;4987322;28;20046;-64
2023/09/19 00:03:11;;;;;;;1.40;0.70;;;;;;;16.03;100.00;96889.16;4987371;28;20077;-64
2023/09/19 00:05:39;;;;;;;3.03;0.70;;;;;;;15.94;100.00;96899.97;4986946;28;20038;-64
2023/09/19 00:08:07;;;;;;;1.95;0.75;;;;;;;15.98;100.00;96895.53;4986017;28;20050;-64
2023/09/19 00:10:34;;;;;;;3.97;2.03;;;;;;;15.97;100.00;96907.56;4985590;28;20034;-64
2023/09/19 00:13:07;;;;;;;3.45;0.80;;;;;;;15.88;100.00;96912.03;4986072;28;20458;-64
2023/09/19 00:15:48;;;;;;;2.33;0.80;;;;;;;15.97;100.00;96917.66;4986220;28;20052;-64
2023/09/19 00:18:21;;;;;;;2.33;0.80;;;;;;;15.86;100.00;96914.25;4986195;28;20469;-64
2023/09/19 00:20:49;;;;;;;1.50;0.60;;;;;;;15.79;100.00;96908.38;4986622;28;20042;-64
2023/09/19 00:23:17;;;;;;;4.47;0.98;;;;;;;15.73;100.00;96904.91;4986029;28;20100;-64
2023/09/19 00:25:43;;;;;;;2.95;0.88;;;;;;;15.79;100.00;96909.19;4983912;28;20093;-64
2023/09/19 00:28:10;;;;;;;1.95;0.80;;;;;;;15.73;100.00;96913.91;4984937;28;20065;-63
2023/09/19 00:30:38;;;;;;;2.22;0.70;;;;;;;15.69;100.00;96915.63;4987443;28;20058;-64
2023/09/19 00:33:08;;;;;;;2.95;0.80;;;;;;;15.69;100.00;96915.63;4982076;28;20061;-64
2023/09/19 00:35:34;;;;;;;2.05;0.75;;;;;;;15.63;100.00;96914.09;4985404;28;20465;-65
2023/09/19 00:38:01;;;;;;;1.63;0.68;;;;;;;15.84;100.00;96921.94;4985827;28;20045;-64
2023/09/19 00:40:29;;;;;;;1.75;0.70;;;;;;;15.78;100.00;96923.94;4986327;28;20481;-64
2023/09/19 00:43:02;;;;;;;2.35;0.75;;;;;;;15.84;100.00;96922.75;4987988;28;20052;-64
2023/09/19 00:45:29;;;;;;;1.95;0.70;;;;;;;15.85;100.00;96929.81;4982767;28;20053;-65
2023/09/19 00:47:57;;;;;;;1.45;0.60;;;;;;;15.91;100.00;96919.63;4985961;28;20073;-64
2023/09/19 00:50:26;;;;;;;1.10;0.40;;;;;;;15.83;100.00;96923.88;4984316;28;20054;-64
2023/09/19 00:52:57;;;;;;;1.88;0.55;;;;;;;15.85;100.00;96923.56;4983113;28;20050;-64
2023/09/19 00:55:25;;;;;;;2.15;1.05;;;;;;;15.73;100.00;96932.19;4983940;28;20056;-64
2023/09/19 00:57:52;;;;;;;1.85;0.70;;;;;;;15.67;100.00;96933.41;4982539;28;20038;-64
2023/09/19 01:00:20;;;;;;;1.40;0.60;;;;;;;15.77;100.00;96930.50;4983185;28;20592;-64
2023/09/19 01:02:47;;;;;;;3.08;0.70;;;;;;;15.68;100.00;96924.91;4985303;28;20097;-64
2023/09/19 01:05:15;;;;;;;2.35;0.70;;;;;;;15.77;100.00;96929.69;4985214;28;20046;-64
2023/09/19 01:07:48;;;;;;;1.83;0.60;;;;;;;15.85;100.00;96929.81;4982938;28;20050;-64
2023/09/19 01:10:20;;;;;;;2.38;0.70;;;;;;;15.98;100.00;96943.84;4984947;28;20421;-64
2023/09/19 01:13:02;;;;;;;1.58;0.50;;;;;;;16.06;100.00;96942.34;4985792;28;20038;-64
2023/09/19 01:15:42;;;;;;;2.17;0.70;;;;;;;15.98;100.00;96939.22;4984677;28;20612;-64
2023/09/19 01:18:16;;;;;;;2.53;0.77;;;;;;;15.81;100.00;96945.19;4983659;28;20049;-65
2023/09/19 01:21:09;;;;;;;0.88;0.45;;;;;;;15.69;100.00;96951.09;4983914;28;20042;-64
2023/09/19 01:24:05;;;;;;;2.10;0.88;;;;;;;15.62;100.00;96950.66;4969550;28;20656;-64
2023/09/19 01:26:56;;;;;;;1.40;0.60;;;;;;;15.50;100.00;96955.72;4983945;28;20049;-64
2023/09/19 01:29:39;;;;;;;2.15;0.80;;;;;;;15.58;100.00;96963.25;4986376;28;20048;-64
2023/09/19 01:32:09;;;;;;;0.73;0.40;;;;;;;15.60;100.00;96953.66;4983748;28;20042;-64
2023/09/19 01:34:56;;;;;;;2.58;0.93;;;;;;;15.55;100.00;96956.47;4987688;28;20121;-64
2023/09/19 01:37:26;;;;;;;1.55;0.60;;;;;;;15.51;100.00;96952.72;4977392;28;20422;-64
2023/09/19 01:39:56;;;;;;;2.30;0.80;;;;;;;15.54;100.00;96956.75;4985531;28;20113;-64
2023/09/19 01:42:43;;;;;;;2.45;0.80;;;;;;;15.54;100.00;96968.50;4983906;28;20073;-64
2023/09/19 01:45:55;;;;;;;2.28;0.60;;;;;;;15.56;100.00;96971.72;4976935;28;20042;-64
2023/09/19 01:48:38;;;;;;;3.28;0.70;;;;;;;15.68;100.00;96968.59;4986292;28;20092;-64
2023/09/19 01:51:07;;;;;;;1.85;0.50;;;;;;;15.62;100.00;96966.22;4977119;28;20714;-64
2023/09/19 01:53:58;;;;;;;2.03;0.80;;;;;;;15.60;100.00;96983.69;4985959;28;20126;-64
2023/09/19 01:56:44;;;;;;;1.52;0.50;;;;;;;15.49;100.00;96979.50;4981407;28;20124;-64
2023/09/19 01:59:16;;;;;;;2.60;1.30;;;;;;;15.37;100.00;96981.84;4986168;28;20046;-64
2023/09/19 02:01:45;;;;;;;2.35;0.70;;;;;;;15.23;100.00;96979.81;4986703;28;20046;-64
2023/09/19 02:04:12;;;;;;;1.13;0.68;;;;;;;15.14;100.00;96982.38;4986283;28;20544;-64
2023/09/19 02:06:42;;;;;;;3.28;1.05;;;;;;;15.09;100.00;96979.72;4987209;28;20085;-64
2023/09/19 02:09:09;;;;;;;2.83;0.60;;;;;;;15.02;100.00;96979.25;4983799;28;20126;-64
2023/09/19 02:11:36;;;;;;;2.25;0.70;;;;;;;14.92;100.00;96986.44;4985374;28;20098;-64
2023/09/19 02:14:04;;;;;;;3.28;0.63;;;;;;;14.75;100.00;96976.00;4983073;28;20042;-64
2023/09/19 02:16:30;;;;;;;1.00;0.50;;;;;;;14.54;100.00;96987.09;4986472;28;20165;-64
2023/09/19 02:18:57;;;;;;;1.55;0.80;;;;;;;14.54;100.00;96989.00;4986160;28;20049;-64
2023/09/19 02:21:24;;;;;;;1.40;0.70;;;;;;;14.55;100.00;96994.16;4983489;28;20046;-64
2023/09/19 02:23:51;;;;;;;1.90;0.57;;;;;;;14.38;100.00;96991.84;4979239;28;20615;-64
2023/09/19 02:26:18;;;;;;;2.85;0.75;;;;;;;14.29;100.00;97001.75;4984942;28;20050;-64
2023/09/19 02:28:46;;;;;;;2.55;0.90;;;;;;;14.24;100.00;97001.78;4986921;28;20643;-64
2023/09/19 02:31:13;;;;;;;2.00;1.13;;;;;;;14.15;100.00;97005.13;4986371;28;20049;-65
2023/09/19 02:33:40;;;;;;;1.38;0.68;;;;;;;13.95;100.00;97006.09;4984094;28;20545;-65
2023/09/19 02:36:08;;;;;;;2.53;0.98;;;;;;;13.81;100.00;97024.16;4986558;28;20034;-64
2023/09/19 02:38:35;;;;;;;3.83;1.20;;;;;;;13.67;100.00;97022.03;4987192;28;20042;-64
2023/09/19 02:41:01;;;;;;;1.83;0.90;;;;;;;13.66;100.00;97039.47;4984770;28;20046;-64
2023/09/19 02:43:28;;;;;;;2.28;0.90;;;;;;;13.64;100.00;97034.28;4991869;28;20053;-64
2023/09/19 02:45:56;;;;;;;2.03;0.80;;;;;;;13.62;100.00;97032.94;4987323;28;20039;-63
2023/09/19 02:48:24;;;;;;;3.70;1.00;;;;;;;13.45;100.00;97031.38;4989250;28;20055;-64
2023/09/19 02:50:51;;;;;;;3.47;0.90;;;;;;;13.50;100.00;97042.25;4985719;28;20066;-64
2023/09/19 02:53:18;;;;;;;3.75;1.05;;;;;;;13.60;100.00;97046.81;4986623;28;20057;-64
2023/09/19 02:55:46;;;;;;;3.25;0.98;;;;;;;13.83;100.00;97049.16;4986401;28;20121;-64
2023/09/19 02:58:14;;;;;;;2.28;0.80;;;;;;;13.93;100.00;97038.19;4985985;28;20129;-64
2023/09/19 03:00:47;;;;;;;2.47;0.88;;;;;;;14.05;100.00;97046.03;4989399;28;20521;-64
2023/09/19 03:03:15;;;;;;;3.60;1.33;;;;;;;14.10;100.00;97037.84;4986775;28;20039;-66
2023/09/19 03:05:46;;;;;;;2.00;0.63;;;;;;;14.18;100.00;97034.50;4987330;28;20037;-66
2023/09/19 03:08:15;;;;;;;1.92;0.70;;;;;;;14.25;100.00;97034.19;4980381;28;20038;-66
2023/09/19 03:10:42;;;;;;;1.67;0.82;;;;;;;14.33;100.00;97034.69;4988050;28;20054;-66
2023/09/19 03:13:09;;;;;;;5.18;1.83;;;;;;;14.36;100.00;97048.53;4987381;28;20039;-65
2023/09/19 03:15:39;;;;;;;1.50;0.80;;;;;;;14.44;100.00;97058.00;4981073;28;20509;-65
2023/09/19 03:18:06;;;;;;;3.17;0.93;;;;;;;14.52;100.00;97065.56;4982467;28;20045;-65
2023/09/19 03:20:33;;;;;;;3.33;0.88;;;;;;;14.57;100.00;97075.59;4985894;28;20042;-66
2023/09/19 03:23:00;;;;;;;4.47;1.17;;;;;;;14.47;100.00;97075.66;4983781;28;20054;-65
2023/09/19 03:25:28;;;;;;;3.30;1.05;;;;;;;14.43;100.00;97094.50;4983152;28;20042;-65
2023/09/19 03:27:57;;;;;;;3.17;1.00;;;;;;;14.27;100.00;97107.44;4985295;28;20105;-65
2023/09/19 03:30:26;;;;;;;2.75;1.48;;;;;;;14.29;100.00;97140.63;4982023;28;20073;-65
2023/09/19 03:32:53;;;;;;;3.45;1.17;;;;;;;14.36;100.00;97141.13;4981965;28;20045;-65
2023/09/19 03:35:20;;;;;;;3.28;1.50;;;;;;;14.37;100.00;97129.13;4986234;28;20383;-65
2023/09/19 03:37:47;;;;;;;2.38;1.00;;;;;;;14.37;100.00;97131.84;4981300;28;20113;-65
2023/09/19 03:40:15;;;;;;;2.22;1.10;;;;;;;14.32;100.00;97118.28;4984482;28;20039;-65
2023/09/19 03:42:42;;;;;;;5.85;1.33;;;;;;;14.29;100.00;97173.31;4981838;28;20569;-66
2023/09/19 03:45:12;;;;;;;3.28;1.25;;;;;;;14.22;100.00;97170.09;4981427;28;20065;-65
2023/09/19 03:47:46;;;;;;;3.28;1.00;;;;;;;14.25;100.00;97180.41;4979830;28;20413;-65
2023/09/19 03:50:17;;;;;;;2.72;1.02;;;;;;;14.22;100.00;97159.19;4980844;28;20564;-65
2023/09/19 03:52:45;;;;;;;2.50;1.20;;;;;;;14.23;100.00;97147.22;4984501;28;20046;-65
2023/09/19 03:55:11;;;;;;;3.78;1.13;;;;;;;14.23;100.00;97166.28;4983014;28;20046;-65
2023/09/19 03:57:39;;;;;;;4.07;1.55;;;;;;;14.18;100.00;97180.72;4981909;28;20077;-65
2023/09/19 04:00:12;;;;;;;2.63;1.10;;;;;;;14.24;100.00;97181.50;4980574;28;20145;-65
2023/09/19 04:02:39;;;;;;;2.95;1.02;;;;;;;14.17;100.00;97166.31;4983708;28;20154;-65
2023/09/19 04:05:07;;;;;;;3.03;1.13;;;;;;;14.18;100.00;97170.66;4983443;28;20039;-65
2023/09/19 04:07:34;;;;;;;4.95;1.38;;;;;;;14.25;100.00;97183.94;4984620;28;20052;-65
2023/09/19 04:10:02;;;;;;;3.63;1.27;;;;;;;14.27;100.00;97179.03;4967520;28;20042;-65
2023/09/19 04:12:29;;;;;;;3.72;1.33;;;;;;;14.30;100.00;97173.03;4984393;28;20275;-65
2023/09/19 04:14:55;;;;;;;3.88;1.30;;;;;;;14.43;100.00;97195.28;4980549;28;20565;-65
2023/09/19 04:17:23;;;;;;;3.28;1.08;;;;;;;14.33;100.00;97176.28;4982791;28;20046;-65
2023/09/19 04:19:50;;;;;;;9.18;1.38;;;;;;;14.35;100.00;97191.25;4983154;28;20042;-65
2023/09/19 04:22:16;;;;;;;3.55;1.13;;;;;;;14.34;100.00;97191.53;4980906;28;20050;-65
2023/09/19 04:24:44;;;;;;;3.13;1.30;;;;;;;14.31;100.00;97179.28;4985848;28;20414;-66
2023/09/19 04:27:12;;;;;;;3.53;1.23;;;;;;;14.39;100.00;97207.84;4982884;28;20042;-65
2023/09/19 04:29:39;;;;;;;5.15;1.40;;;;;;;14.36;100.00;97190.16;4981416;28;20038;-65
2023/09/19 04:32:05;;;;;;;3.67;1.38;;;;;;;14.29;100.00;97185.03;4984419;28;20093;-65
2023/09/19 04:34:34;;;;;;;4.47;1.45;;;;;;;14.26;100.00;97207.34;4984718;28;20142;-65
2023/09/19 04:37:02;;;;;;;2.75;1.20;;;;;;;14.30;100.00;97207.63;4982410;28;20497;-65
2023/09/19 04:39:28;;;;;;;3.80;1.17;;;;;;;14.32;100.00;97197.25;4984993;28;20050;-65
2023/09/19 04:41:55;;;;;;;3.90;1.48;;;;;;;14.30;100.00;97205.69;4984335;28;20609;-65
2023/09/19 04:44:22;;;;;;;2.17;1.08;;;;;;;14.30;100.00;97210.34;4987161;28;20054;-65
2023/09/19 04:46:48;;;;;;;5.38;1.85;;;;;;;14.34;100.00;97219.56;4980997;28;20038;-65
2023/09/19 04:49:15;;;;;;;2.85;1.40;;;;;;;14.40;100.00;97195.84;4983696;28;20042;-65
2023/09/19 04:51:42;;;;;;;5.10;1.67;;;;;;;14.41;100.00;97175.69;4987024;28;20038;-65
2023/09/19 04:54:09;;;;;;;3.72;1.50;;;;;;;14.45;100.00;97168.59;4981680;28;20061;-65
2023/09/19 04:56:35;;;;;;;4.10;2.28;;;;;;;14.51;100.00;97172.91;4983243;28;20062;-65
2023/09/19 04:59:02;;;;;;;2.28;1.20;;;;;;;14.60;100.00;97164.97;4984793;28;20071;-65
2023/09/19 05:01:29;;;;;;;3.80;1.27;;;;;;;14.61;100.00;97161.13;4984794;28;20069;-65
2023/09/19 05:03:56;;;;;;;3.38;1.27;;;;;;;14.49;100.00;97141.59;4985344;28;20049;-65
2023/09/19 05:06:22;;;;;;;3.50;1.27;;;;;;;14.55;100.00;97137.72;4984806;28;20038;-65
2023/09/19 05:08:50;;;;;;;3.42;1.35;;;;;;;14.57;100.00;97149.16;4984541;28;20488;-65
2023/09/19 05:11:18;;;;;;;4.22;1.42;;;;;;;14.41;100.00;97153.91;4980819;28;20062;-65
2023/09/19 05:13:45;;;;;;;3.15;1.35;;;;;;;14.38;100.00;97151.75;4981411;28;20046;-65
2023/09/19 05:16:12;;;;;;;3.40;1.60;;;;;;;14.40;100.00;97142.19;4981437;28;20039;-65
2023/09/19 05:18:39;;;;;;;2.50;1.30;;;;;;;14.28;100.00;97144.44;4981560;28;20038;-65
2023/09/19 05:21:05;;;;;;;4.47;1.40;;;;;;;14.25;100.00;97153.16;4987594;28;20039;-65
2023/09/19 05:23:32;;;;;;;3.92;1.30;;;;;;;14.27;100.00;97145.56;4985149;28;20046;-65
2023/09/19 05:25:59;;;;;;;2.30;1.15;;;;;;;14.24;100.00;97160.53;4984164;28;20044;-65
2023/09/19 05:28:26;;;;;;;3.03;1.52;;;;;;;14.19;100.00;97168.72;4982564;28;20046;-65
2023/09/19 05:30:53;;;;;;;4.05;1.58;;;;;;;14.11;100.00;97169.34;4982342;28;20053;-65
2023/09/19 05:33:20;;;;;;;3.30;1.50;;;;;;;14.13;100.00;97173.41;4983779;28;20616;-65
2023/09/19 05:35:49;;;;;;;6.03;2.83;;;;;;;13.96;100.00;97175.66;4981549;28;20044;-65
2023/09/19 05:38:18;;;;;;;5.32;1.80;;;;;;;13.94;100.00;97184.09;4981677;28;20046;-65
2023/09/19 05:40:45;;;;;;;4.18;1.45;;;;;;;13.93;100.00;97204.22;4984725;28;20039;-65
2023/09/19 05:43:14;;;;;;;5.32;1.40;;;;;;;13.89;100.00;97206.69;4982645;28;20394;-65
2023/09/19 05:45:41;;;;;;;9.40;1.83;;;;;;;13.86;100.00;97201.00;4982866;28;20057;-65
2023/09/19 05:48:09;;;;;;;5.43;1.65;;;;;;;13.88;100.00;97194.19;4983211;28;20049;-65
2023/09/19 05:50:36;;;;;;;4.45;1.80;;;;;;;13.87;100.00;97195.28;4987169;28;20045;-65
2023/09/19 05:53:04;;;;;;;3.25;1.63;;;;;;;13.85;100.00;97183.03;4986963;28;20058;-65
2023/09/19 05:55:33;;;;;;;6.47;2.15;;;;;;;13.84;100.00;97193.13;4988131;28;20043;-64
2023/09/19 05:58:00;;;;;;;8.95;2.75;;;;;;;13.82;100.00;97194.50;4985378;28;20109;-65
2023/09/19 06:00:31;;;;;;;4.28;1.70;;;;;;;13.84;100.00;97193.13;4986093;28;20720;-64
2023/09/19 06:02:59;;;;;;;2.90;1.40;;;;;;;13.89;100.00;97184.09;4983694;28;20524;-65
2023/09/19 06:05:27;;;;;;;6.00;1.73;;;;;;;13.95;100.00;97187.63;4985215;28;20062;-65
2023/09/19 06:07:54;;;;;;;4.93;1.75;;;;;;;13.95;100.00;97193.06;4985331;28;20060;-65
2023/09/19 06:10:22;;;;;;;4.32;1.45;;;;;;;14.07;100.00;97193.56;4984607;28;20081;-65
2023/09/19 06:12:49;;;;;;;3.97;1.50;;;;;;;14.15;100.00;97195.69;4987017;28;20034;-65
2023/09/19 06:15:18;;;;;;;4.03;1.45;;;;;;;14.20;100.00;97191.31;4984038;28;20731;-65
2023/09/19 06:17:51;;;;;;;6.20;1.70;;;;;;;14.28;100.00;97193.47;4985294;28;20409;-65
2023/09/19 06:20:19;;;;;;;3.83;1.45;;;;;;;14.35;100.00;97193.97;4983007;28;20129;-65
2023/09/19 06:22:46;;;;;;;4.90;1.40;;;;;;;14.28;100.00;97197.00;4985656;28;20524;-65
2023/09/19 06:25:20;;;;;;;3.88;1.40;;;;;;;14.22;100.00;97183.72;4982818;28;20116;-65
2023/09/19 06:27:48;;;;;;;8.32;1.85;;;;;;;14.28;100.00;97193.47;4983086;28;20100;-65
2023/09/19 06:30:15;;;;;;;4.47;1.65;;;;;;;14.26;100.00;97190.22;4985568;28;20074;-65
2023/09/19 06:32:43;;;;;;;5.50;1.90;;;;;;;14.27;100.00;97194.56;4986513;28;20057;-65
2023/09/19 06:35:12;;;;;;;4.90;1.60;;;;;;;14.36;100.00;97190.16;4984381;28;20031;-65
2023/09/19 06:37:40;;;;;;;2.67;1.30;;;;;;;14.43;100.00;97189.84;4986540;28;20492;-65
2023/09/19 06:40:15;;;;;;;5.57;1.65;;;;;;;14.48;100.00;97189.81;4984305;28;20046;-65
2023/09/19 06:42:51;;;;;;;4.72;1.40;;;;;;;14.50;100.00;97193.06;4985720;28;20046;-65
2023/09/19 06:45:18;;;;;;;7.30;2.17;;;;;;;14.45;100.00;97182.22;4985629;28;20107;-66
2023/09/19 06:47:45;;;;;;;5.00;1.60;;;;;;;14.54;100.00;97187.88;4985743;28;20130;-65
2023/09/19 06:50:15;;;;;;;3.45;1.27;;;;;;;14.61;100.00;97193.81;4984822;28;20089;-65
2023/09/19 06:52:42;;;;;;;6.22;1.70;;;;;;;14.62;100.00;97203.63;4987445;28;20141;-65
2023/09/19 06:55:13;;;;;;;5.85;1.80;;;;;;;14.53;100.00;97210.75;4987065;28;20042;-65
2023/09/19 06:57:43;;;;;;;6.60;2.80;;;;;;;14.42;100.00;97210.81;4987116;28;20042;-66
2023/09/19 07:00:24;;;;;;;4.20;1.63;;;;;;;14.43;100.00;97215.19;4985911;28;20038;-65
2023/09/19 07:03:00;;;;;;;4.20;1.75;;;;;;;14.50;100.00;97222.22;4984423;28;20050;-65
2023/09/19 07:05:28;;;;;;;4.32;1.58;;;;;;;14.54;100.00;97224.09;4980355;28;20038;-65
2023/09/19 07:07:55;;;;;;;4.70;1.48;;;;;;;14.52;100.00;97226.28;4985713;28;20061;-65
2023/09/19 07:10:23;;;;;;;5.32;1.70;;;;;;;14.54;100.00;97234.19;4983533;28;20617;-65
2023/09/19 07:12:58;;;;;;;4.38;1.52;;;;;;;14.56;100.00;97235.53;4986598;28;20133;-65
2023/09/19 07:15:25;;;;;;;5.57;1.50;;;;;;;14.55;100.00;97239.34;4987006;28;20042;-66
2023/09/19 07:17:56;;;;;;;5.45;1.33;;;;;;;14.68;100.00;97250.72;4984500;28;20057;-65
2023/09/19 07:20:31;;;;;;;7.65;1.80;;;;;;;14.79;100.00;97243.34;4982702;28;20130;-65
2023/09/19 07:23:01;;;;;;;5.13;2.00;;;;;;;14.78;100.00;97244.44;4979766;28;20038;-65
2023/09/19 07:25:28;;;;;;;5.07;1.40;;;;;;;14.80;100.00;97247.69;4979630;28;20121;-65
2023/09/19 07:27:56;;;;;;;6.30;2.08;;;;;;;14.88;100.00;97249.81;4983342;28;20042;-65
2023/09/19 07:30:23;;;;;;;7.55;2.95;;;;;;;14.87;100.00;97250.09;4979981;28;20141;-60
2023/09/19 07:32:49;;;;;;;5.38;2.05;;;;;;;15.00;100.00;97251.38;4980701;28;20141;-60
2023/09/19 07:35:16;;;;;;;3.60;1.98;;;;;;;15.00;100.00;97248.66;4982768;28;20593;-59
2023/09/19 07:37:43;;;;;;;5.13;1.50;;;;;;;15.10;100.00;97256.72;4984367;28;20042;-60
2023/09/19 07:40:10;;;;;;;4.35;1.40;;;;;;;15.12;100.00;97259.19;4983010;28;20038;-61
2023/09/19 07:42:39;;;;;;;5.70;1.40;;;;;;;15.28;100.00;97255.22;4983996;28;20065;-62
2023/09/19 07:45:07;;;;;;;3.80;1.50;;;;;;;15.35;100.00;97252.19;4984108;28;20058;-60
2023/09/19 07:47:36;;;;;;;4.20;1.48;;;;;;;15.41;100.00;97255.69;4983052;28;20046;-61
2023/09/19 07:50:03;;;;;;;3.92;1.27;;;;;;;15.48;100.00;97256.97;4983186;28;20055;-60
2023/09/19 07:52:29;;;;;;;3.20;1.30;;;;;;;15.60;100.00;97255.78;4977957;28;20560;-62
2023/09/19 07:54:57;;;;;;;5.95;1.70;;;;;;;15.74;100.00;97255.91;4982050;28;20045;-62
2023/09/19 07:57:25;;;;;;;3.67;1.20;;;;;;;15.79;100.00;97264.06;4987165;28;20038;-62
2023/09/19 07:59:51;;;;;;;4.53;1.23;;;;;;;15.86;100.00;97272.69;4982995;28;20080;-63
2023/09/19 08:02:18;;;;;;;3.10;1.23;;;;;;;15.97;100.00;97268.00;4981302;28;20049;-62
2023/09/19 08:04:46;;;;;;;2.72;1.10;;;;;;;15.97;100.00;97275.34;4983645;28;20034;-60
2023/09/19 08:07:13;;;;;;;1.98;0.90;;;;;;;15.93;100.00;97274.28;4979863;28;20038;-63
2023/09/19 08:09:40;;;;;;;4.88;1.30;;;;;;;15.85;100.00;97284.72;4982514;28;20046;-62
2023/09/19 08:12:10;;;;;;;3.63;1.08;;;;;;;15.96;100.00;97280.00;4978377;28;20101;-64
2023/09/19 08:14:37;;;;;;;1.65;0.93;;;;;;;15.96;100.00;97279.19;4981992;28;20046;-62
2023/09/19 08:17:05;;;;;;;5.10;1.50;;;;;;;16.01;100.00;97283.78;4981021;28;20061;-63
2023/09/19 08:19:32;;;;;;;3.40;1.20;;;;;;;16.03;100.00;97284.31;4983324;28;20472;-60
2023/09/19 08:21:59;;;;;;;3.60;1.40;;;;;;;16.06;100.00;97278.25;4982329;28;20034;-62
2023/09/19 08:24:29;;;;;;;4.50;1.23;;;;;;;16.14;100.00;97276.81;4995132;28;20122;-66
2023/09/19 08:26:56;;;;;;;3.03;1.27;;;;;;;16.21;100.00;97282.72;4989654;28;20058;-61
2023/09/19 08:29:27;;;;;;;3.60;1.45;;;;;;;16.18;100.00;97291.53;4981797;28;20130;-61
2023/09/19 08:31:55;;;;;;;2.25;1.10;;;;;;;16.40;100.00;97287.44;4982114;28;20046;-64
2023/09/19 08:34:26;;;;;;;2.50;1.00;;;;;;;16.46;100.00;97291.72;4980948;28;20044;-63
2023/09/19 08:36:57;;;;;;;5.45;1.20;;;;;;;16.55;100.00;97298.16;4986633;28;20078;-62
2023/09/19 08:39:25;;;;;;;2.05;1.00;;;;;;;16.67;100.00;97289.56;4981053;28;21261;-59
2023/09/19 08:42:01;;;;;;;2.60;1.10;;;;;;;16.63;100.00;97289.31;4980855;28;20212;-61
2023/09/19 08:44:30;;;;;;;2.85;1.15;;;;;;;16.72;100.00;97294.94;4987246;28;20054;-62
2023/09/19 08:47:35;;;;;;;2.53;1.10;;;;;;;16.75;100.00;97299.00;4982079;28;20477;-61
2023/09/19 08:50:29;;;;;;;3.15;0.85;;;;;;;16.93;97.29;97302.88;4981412;28;20053;-63
2023/09/19 08:53:00;;;;;;;2.55;0.90;;;;;;;17.19;96.33;97298.97;4980462;28;20050;-63
2023/09/19 08:55:28;;;;;;;3.30;0.98;;;;;;;17.18;96.11;97295.44;4982042;28;20053;-63
2023/09/19 08:58:01;;;;;;;2.90;0.88;;;;;;;17.20;94.17;97297.84;4979251;28;20050;-59
2023/09/19 09:00:30;;;;;;;2.42;1.00;;;;;;;17.17;94.23;97304.72;4978301;28;20057;-59
2023/09/19 09:02:58;;;;;;;2.45;0.98;;;;;;;17.16;92.31;97309.41;4979652;28;20050;-58
2023/09/19 09:05:26;;;;;;;2.42;1.00;;;;;;;17.10;90.19;97309.78;4980688;28;20038;-64
2023/09/19 09:07:56;;;;;;;2.92;1.02;;;;;;;16.99;93.14;97309.88;4982224;28;20046;-63
2023/09/19 09:10:22;;;;;;;3.38;1.17;;;;;;;17.08;92.31;97306.50;4981857;28;20683;-65
2023/09/19 09:12:55;;;;;;;2.20;0.93;;;;;;;17.16;90.54;97308.56;4977330;28;20100;-63
2023/09/19 09:15:23;;;;;;;2.38;0.90;;;;;;;17.32;89.46;97308.34;4978599;28;20038;-65
2023/09/19 09:17:52;;;;;;;2.60;0.80;;;;;;;17.30;86.29;97311.38;4980632;28;20072;-64
2023/09/19 09:20:20;;;;;;;3.97;1.15;;;;;;;17.37;87.39;97314.56;4981128;28;20050;-63
2023/09/19 09:22:54;;;;;;;5.63;1.10;;;;;;;17.39;87.08;97322.44;4980676;28;20058;-62
2023/09/19 09:25:24;;;;;;;2.28;1.00;;;;;;;17.66;86.90;97315.47;4980371;28;20046;-63
2023/09/19 09:28:01;;;;;;;2.30;0.90;;;;;;;17.84;85.77;97305.53;4981271;28;20640;-64
2023/09/19 09:30:36;;;;;;;2.78;1.13;;;;;;;18.11;82.88;97309.47;4977804;28;20117;-64
2023/09/19 09:33:11;;;;;;;3.70;1.33;;;;;;;18.34;85.02;97315.06;4980155;28;20047;-65
2023/09/19 09:35:51;;;;;;;2.63;0.88;;;;;;;18.43;80.45;97313.22;4981802;28;20066;-64
2023/09/19 09:38:20;;;;;;;3.17;1.10;;;;;;;18.27;77.87;97312.72;4980712;28;20121;-63
2023/09/19 09:41:15;;;;;;;3.88;1.48;;;;;;;18.27;78.78;97306.44;4981987;28;20064;-63
2023/09/19 09:43:40;;;;;;;1.98;1.00;;;;;;;18.00;77.99;97313.50;4978082;28;20445;-65
2023/09/19 09:51:57;;;;;;;1.85;0.80;;;;;;;18.11;77.25;97294.97;4974015;28;19926;-63
2023/09/19 09:54:30;;;;;;;3.50;1.30;;;;;;;18.13;76.15;97304.50;4979309;28;20509;-64
2023/09/19 09:57:13;;;;;;;3.03;0.85;;;;;;;17.91;73.30;97300.50;4981799;28;20413;-64
2023/09/19 09:59:55;;;;;;;2.55;1.10;;;;;;;18.09;74.47;97300.75;4983074;28;20516;-64
2023/09/19 10:02:29;;;;;;;3.03;0.98;;;;;;;18.02;73.99;97301.13;4978988;28;20113;-64
2023/09/19 10:05:08;;;;;;;3.10;0.90;;;;;;;18.25;76.47;97309.50;4981561;28;20074;-64
2023/09/19 10:07:41;;;;;;;2.03;0.80;;;;;;;18.47;74.58;97302.50;4981280;28;20523;-63
2023/09/19 10:10:16;;;;;;;2.97;0.80;;;;;;;18.81;71.65;97297.66;4979249;28;20577;-63
2023/09/19 10:12:48;;;;;;;3.28;0.70;;;;;;;18.76;68.29;97303.25;4975272;28;20047;-64
2023/09/19 10:15:20;;;;;;;2.85;0.80;;;;;;;18.74;70.53;97302.75;4980197;28;20050;-64
2023/09/19 10:17:47;;;;;;;3.45;0.90;;;;;;;18.86;67.81;97292.06;4980446;28;20528;-64
2023/09/19 10:20:24;;;;;;;2.97;0.90;;;;;;;18.91;68.09;97302.13;4977380;28;20050;-62
2023/09/19 10:22:57;;;;;;;3.67;1.42;;;;;;;18.70;66.54;97292.41;4979430;28;20117;-61
2023/09/19 10:25:31;;;;;;;3.33;0.90;;;;;;;18.98;68.51;97289.59;4977593;28;20046;-65
2023/09/19 10:28:03;;;;;;;5.00;0.80;;;;;;;19.08;68.21;97285.00;4981345;28;20126;-64
2023/09/19 10:30:34;;;;;;;2.50;0.90;;;;;;;19.21;66.36;97267.66;4980177;28;20097;-65
2023/09/19 10:33:03;;;;;;;2.23;0.80;;;;;;;19.37;65.45;97289.28;4981696;28;20046;-64
2023/09/19 10:35:33;;;;;;;2.80;0.93;;;;;;;19.43;65.37;97285.28;4982409;28;20424;-63
2023/09/19 10:38:02;;;;;;;2.47;0.98;;;;;;;19.49;65.81;97278.53;4982605;28;20121;-63
2023/09/19 10:40:32;;;;;;;1.95;0.80;;;;;;;19.75;63.03;97293.53;4986016;28;20042;-62
2023/09/19 10:43:06;;;;;;;3.10;0.57;;;;;;;19.51;62.30;97286.47;4983991;28;20038;-60
2023/09/19 10:45:35;;;;;;;3.63;1.00;;;;;;;19.29;62.22;97288.09;4985639;28;20662;-62
2023/09/19 10:48:07;;;;;;;1.58;0.65;;;;;;;19.15;63.03;97292.81;4983937;28;20050;-62
2023/09/19 10:50:44;;;;;;;2.08;0.80;;;;;;;19.21;64.88;97291.59;4982970;28;20046;-62
2023/09/19 10:53:13;;;;;;;2.55;0.90;;;;;;;19.04;65.89;97300.44;4983482;28;20054;-63
2023/09/19 10:55:40;;;;;;;3.10;1.00;;;;;;;19.11;67.04;97303.59;4984327;28;20706;-62
2023/09/19 10:58:24;;;;;;;3.28;1.45;;;;;;;19.15;66.23;97298.28;4980838;28;20034;-62
2023/09/19 11:00:56;;;;;;;2.83;0.75;;;;;;;19.19;66.54;97305.59;4984846;28;20053;-63
2023/09/19 11:03:30;;;;;;;2.67;0.82;;;;;;;19.04;66.05;97295.78;4983291;28;20049;-62
2023/09/19 11:06:15;;;;;;;1.63;0.60;;;;;;;19.12;67.79;97301.69;4981340;28;20069;-64
2023/09/19 11:11:57;;;;;;;2.25;0.90;;;;;;;19.52;71.32;97295.50;4982715;28;20568;-61
2023/09/19 11:14:24;;;;;;;4.50;0.90;;;;;;;19.71;73.26;97304.34;4981102;28;20493;-61
2023/09/19 11:17:17;;;;;;;2.72;0.93;;;;;;;19.86;72.60;97292.16;4987527;28;20135;-62
2023/09/19 11:20:11;;;;;;;7.10;1.27;;;;;;;19.59;73.56;97301.38;4981288;28;20701;-62
2023/09/19 11:22:50;;;;;;;6.35;1.10;;;;;;;19.20;74.26;97282.53;4980342;28;20066;-62
2023/09/19 11:28:22;;;;;;;3.15;0.77;;;;;;;19.43;73.14;97281.72;4984164;28;20038;-60
2023/09/19 11:30:50;;;;;;;3.28;1.30;;;;;;;19.68;74.14;97280.25;4983600;28;20039;-63
2023/09/19 11:33:20;;;;;;;4.53;1.00;;;;;;;19.80;73.23;97276.94;4983118;28;20096;-61
2023/09/19 11:36:00;;;;;;;2.40;0.70;;;;;;;19.73;66.44;97274.66;4984734;28;20417;-64
2023/09/19 11:38:49;;;;;;;5.30;1.17;;;;;;;19.54;69.59;97279.53;4983038;28;20112;-63
2023/09/19 11:41:21;;;;;;;1.13;0.70;;;;;;;19.77;69.05;97277.56;4980828;28;20782;-63
2023/09/19 11:43:50;;;;;;;5.78;1.25;;;;;;;19.72;66.92;97275.75;4983664;28;20046;-60
2023/09/19 11:46:22;;;;;;;2.50;1.08;;;;;;;19.89;61.65;97260.50;4982578;28;20050;-63
2023/09/19 11:48:49;;;;;;;2.50;0.88;;;;;;;20.04;58.51;97273.03;4983829;28;20038;-62
2023/09/19 11:51:28;;;;;;;1.98;0.73;;;;;;;20.17;58.47;97273.25;4982733;28;20050;-61
2023/09/19 11:54:02;;;;;;;1.98;0.70;;;;;;;20.12;58.42;97266.75;4982904;28;20047;-60